Map

Track Data

SID SEASON NUMBER BASIN SUBBASIN NAME ISO_TIME NATURE LAT LON WMO_WIND WMO_PRES WMO_AGENCY TRACK_TYPE DIST2LAND LANDFALL IFLAG USA_AGENCY USA_ATCF_ID USA_LAT USA_LON USA_RECORD USA_STATUS USA_WIND USA_PRES USA_SSHS USA_R34_NE USA_R34_SE USA_R34_SW USA_R34_NW USA_R50_NE USA_R50_SE USA_R50_SW USA_R50_NW USA_R64_NE USA_R64_SE USA_R64_SW USA_R64_NW USA_POCI USA_ROCI USA_RMW USA_EYE TOKYO_LAT TOKYO_LON TOKYO_GRADE TOKYO_WIND TOKYO_PRES TOKYO_R50_DIR TOKYO_R50_LONG TOKYO_R50_SHORT TOKYO_R30_DIR TOKYO_R30_LONG TOKYO_R30_SHORT TOKYO_LAND CMA_LAT CMA_LON CMA_CAT CMA_WIND CMA_PRES HKO_LAT HKO_LON HKO_CAT HKO_WIND HKO_PRES NEWDELHI_LAT NEWDELHI_LON NEWDELHI_GRADE NEWDELHI_WIND NEWDELHI_PRES NEWDELHI_CI NEWDELHI_DP NEWDELHI_POCI REUNION_LAT REUNION_LON REUNION_TYPE REUNION_WIND REUNION_PRES REUNION_TNUM REUNION_CI REUNION_RMW REUNION_R34_NE REUNION_R34_SE REUNION_R34_SW REUNION_R34_NW REUNION_R50_NE REUNION_R50_SE REUNION_R50_SW REUNION_R50_NW REUNION_R64_NE REUNION_R64_SE REUNION_R64_SW REUNION_R64_NW BOM_LAT BOM_LON BOM_TYPE BOM_WIND BOM_PRES BOM_TNUM BOM_CI BOM_RMW BOM_R34_NE BOM_R34_SE BOM_R34_SW BOM_R34_NW BOM_R50_NE BOM_R50_SE BOM_R50_SW BOM_R50_NW BOM_R64_NE BOM_R64_SE BOM_R64_SW BOM_R64_NW BOM_ROCI BOM_POCI BOM_EYE BOM_POS_METHOD BOM_PRES_METHOD NADI_LAT NADI_LON NADI_CAT NADI_WIND NADI_PRES WELLINGTON_LAT WELLINGTON_LON WELLINGTON_WIND WELLINGTON_PRES DS824_LAT DS824_LON DS824_STAGE DS824_WIND DS824_PRES TD9636_LAT TD9636_LON TD9636_STAGE TD9636_WIND TD9636_PRES TD9635_LAT TD9635_LON TD9635_WIND TD9635_PRES TD9635_ROCI NEUMANN_LAT NEUMANN_LON NEUMANN_CLASS NEUMANN_WIND NEUMANN_PRES MLC_LAT MLC_LON MLC_CLASS MLC_WIND MLC_PRES USA_GUST BOM_GUST BOM_GUST_PER REUNION_GUST REUNION_GUST_PER USA_SEAHGT USA_SEARAD_NE USA_SEARAD_SE USA_SEARAD_SW USA_SEARAD_NW STORM_SPEED STORM_DIR
1956029S14177 1956 11 SP MM NOT_NAMED 1956-01-29 05:00:00 NR -14.0000 177.000 main 342 342 __________O___ -1 -14.0000 177.000 1 20 22 279
1956029S14177 1956 11 SP MM NOT_NAMED 1956-01-29 06:00:00 TS -13.9432 176.633 main 373 373 O________OP___ jtwc_sh SH161956 -13.9000 176.600 20 -1 -14.0000 176.700 TC 25 1002 -13.9580 176.631 1 20 22 279
1956029S14177 1956 11 SP MM NOT_NAMED 1956-01-29 09:00:00 TS -13.7770 175.527 main 457 457 P________PP___ SH161956 -13.6718 175.416 20 -1 -13.8825 175.676 TC 26 1001 -13.8469 175.575 1 20 20 277
1956029S14177 1956 11 SP MM NOT_NAMED 1956-01-29 12:00:00 TS -13.7140 174.633 main 526 526 O________PP___ jtwc_sh SH161956 -13.6000 174.500 20 -1 -13.8295 174.812 TC 27 1001 -13.7985 174.699 1 20 14 267
1956029S14177 1956 11 SP MM NOT_NAMED 1956-01-29 15:00:00 TS -13.8450 174.131 main 551 534 P________PP___ SH161956 -13.8016 174.061 20 -1 -13.9116 174.267 TC 28 1000 -13.8653 174.136 1 20 8 239
1956029S14177 1956 11 SP MM NOT_NAMED 1956-01-29 17:00:00 TS -14.0457 174.058 main 534 518 P________PO___ SH161956 -14.0531 174.037 20 -1 -14.0766 174.159 TC 29 1000 -14.0000 174.000 1 20 7 185
1956029S14177 1956 11 SP MM NOT_NAMED 1956-01-29 18:00:00 TS -14.1749 174.104 main 518 456 O________OP___ jtwc_sh SH161956 -14.2000 174.100 20 -1 -14.2000 174.200 TC 30 1000 -14.0995 174.017 1 20 11 142
1956029S14177 1956 11 SP MM NOT_NAMED 1956-01-29 21:00:00 TS -14.6419 174.530 main 456 363 P________PP___ SH161956 -14.6704 174.552 20 -1 -14.7176 174.667 TC 30 1000 -14.5093 174.350 1 21 14 135
1956029S14177 1956 11 SP MM NOT_NAMED 1956-01-30 00:00:00 TS -15.1840 175.163 main 355 278 O________OP___ jtwc_sh SH161956 -15.2000 175.200 20 -1 -15.3000 175.300 TC 30 1000 -15.0360 174.951 1 22 15 134
1956029S14177 1956 11 SP MM NOT_NAMED 1956-01-30 03:00:00 TS -15.6954 175.680 main 278 239 P________PP___ SH161956 -15.7000 175.695 22 -1 -15.7662 175.710 TC 32 999 -15.6153 175.619 1 24 14 138
1956029S14177 1956 11 SP MM NOT_NAMED 1956-01-30 05:00:00 TS -16.0307 175.968 main 231 208 P________PO___ SH161956 -16.0333 175.978 24 -1 -16.0562 175.916 TC 34 998 -16.0000 176.000 1 25 13 142
1956029S14177 1956 11 SP MM NOT_NAMED 1956-01-30 06:00:00 TS -16.1937 176.080 main 208 146 O________OP___ jtwc_sh SH161956 -16.2000 176.100 25 -1 -16.2000 176.000 TC 35 998 -16.1749 176.120 1 26 12 149
1956029S14177 1956 11 SP MM NOT_NAMED 1956-01-30 09:00:00 TS -16.7093 176.385 main 146 105 P________PP___ SH161956 -16.6999 176.432 32 -1 -16.7340 176.267 TC 37 996 -16.7035 176.410 1 31 11 156
1956029S14177 1956 11 SP MM NOT_NAMED 1956-01-30 12:00:00 TS -17.2223 176.551 main 95 71 O________PP___ jtwc_sh SH161956 -17.2000 176.600 40 0 -17.2681 176.431 TC 40 994 -17.2210 176.574 1 36 10 171
1956029S14177 1956 11 SP MM NOT_NAMED 1956-01-30 15:00:00 TS -17.7171 176.563 main 71 67 P________PP___ SH161956 -17.7223 176.605 42 0 -17.7182 176.455 TC 42 992 -17.7058 176.587 1 41 10 186
1956029S14177 1956 11 SP MM NOT_NAMED 1956-01-30 17:00:00 TS -18.0077 176.464 main 74 74 P________PO___ SH161956 -18.0503 176.492 44 0 -17.9300 176.374 TC 44 990 -18.0000 176.500 2 45 9 203
1956029S14177 1956 11 SP MM NOT_NAMED 1956-01-30 18:00:00 TS -18.1354 176.382 main 85 85 O________OP___ jtwc_sh SH161956 -18.2000 176.400 45 0 -18.0000 176.300 TC 45 990 -18.1418 176.429 2 43 9 225
1956029S14177 1956 11 SP MM NOT_NAMED 1956-01-30 21:00:00 TS -18.4346 176.016 main 134 134 P________PP___ SH161956 -18.5876 176.010 40 0 -18.0304 175.954 TC 45 990 -18.5327 176.089 2 40 10 237
1956029S14177 1956 11 SP MM NOT_NAMED 1956-01-31 00:00:00 TS -18.6673 175.528 main 195 195 O________OP___ jtwc_sh SH161956 -18.9000 175.500 35 0 -18.0000 175.500 TC 45 990 -18.8691 175.612 2 36 10 243
1956029S14177 1956 11 SP MM NOT_NAMED 1956-01-31 03:00:00 TS -18.9037 175.040 main 252 252 P________PP___ SH161956 -19.1875 175.000 32 -1 -18.0923 175.093 TC -19.1477 175.067 2 32 10 244
1956029S14177 1956 11 SP MM NOT_NAMED 1956-01-31 05:00:00 TS -19.0432 174.711 main 286 286 P________PO___ SH161956 -19.3390 174.664 30 -1 -18.1948 174.819 TC -19.3000 174.700 1 30 10 246
1956029S14177 1956 11 SP MM NOT_NAMED 1956-01-31 06:00:00 TS -19.1043 174.555 main 300 300 O________PP___ jtwc_sh SH161956 -19.4000 174.500 30 -1 -18.2575 174.681 TC -19.3599 174.537 1 29 9 250
1956029S14177 1956 11 SP MM NOT_NAMED 1956-01-31 09:00:00 TS -19.2525 174.097 main 357 357 P________PP___ SH161956 -19.5148 174.042 27 -1 -18.4883 174.264 TC -19.4920 174.040 1 26 9 251
1956029S14177 1956 11 SP MM NOT_NAMED 1956-01-31 12:00:00 TS -19.3916 173.648 main 410 410 O________PP___ jtwc_sh SH161956 -19.6000 173.600 25 -1 -18.7772 173.845 TC -19.5891 173.549 1 24 9 249
1956029S14177 1956 11 SP MM NOT_NAMED 1956-01-31 15:00:00 TS -19.5749 173.194 main 457 457 P________PP___ SH161956 -19.7425 173.135 22 -1 -19.1169 173.423 TC -19.6978 173.084 1 21 9 245
1956029S14177 1956 11 SP MM NOT_NAMED 1956-01-31 17:00:00 TS -19.7157 172.905 main 490 490 P________PO___ SH161956 -19.8474 172.839 20 -1 -19.3679 173.141 TC -19.8000 172.800 1 20 9 242
1956029S14177 1956 11 SP MM NOT_NAMED 1956-01-31 18:00:00 TS -19.7854 172.770 main 504 504 O________OP___ jtwc_sh SH161956 -19.9000 172.700 20 -1 -19.5000 173.000 TC 45 990 -19.8417 172.679 1 20 8 244
1956029S14177 1956 11 SP MM NOT_NAMED 1956-01-31 21:00:00 TS -19.9472 172.399 main 547 547 P________PP___ SH161956 -19.9974 172.327 20 -1 -19.8023 172.587 TC 47 988 -19.9916 172.353 1 20 8 238
1956029S14177 1956 11 SP MM NOT_NAMED 1956-02-01 00:00:00 TS -20.2001 172.056 main 573 528 O________PP___ jtwc_sh SH161956 -20.2000 172.000 20 -1 -20.1708 172.171 TC 50 987 -20.2296 172.053 1 20 9 223
1956029S14177 1956 11 SP MM NOT_NAMED 1956-02-01 03:00:00 TS -20.6011 171.739 main 518 484 P________PP___ SH161956 -20.5647 171.736 20 -1 -20.6539 171.744 TC 52 986 -20.6212 171.738 1 20 11 213
1956029S14177 1956 11 SP MM NOT_NAMED 1956-02-01 05:00:00 TS -20.9919 171.503 main 484 467 P________PO___ SH161956 -20.9519 171.531 20 -1 -21.0635 171.451 TC 54 985 -21.0000 171.500 1 20 15 209
1956029S14177 1956 11 SP MM NOT_NAMED 1956-02-01 06:00:00 TS -21.2371 171.358 main 467 391 O________OP___ jtwc_sh SH161956 -21.2000 171.400 20 -1 -21.3000 171.300 TC 55 985 -21.2486 171.333 1 19 20 209
1956029S14177 1956 11 SP MM NOT_NAMED 1956-02-01 09:00:00 TS -22.1639 170.804 main 391 347 P________PP___ SH161956 -22.1756 170.816 17 -1 -22.1521 170.800 TC 55 985 -22.1522 170.783 1 18 23 208
1956029S14177 1956 11 SP MM NOT_NAMED 1956-02-01 12:00:00 TS -23.2424 170.226 main 343 339 O________PP___ jtwc_sh SH161956 -23.3000 170.200 15 -1 -23.1634 170.282 TC 55 985 -23.2064 170.222 1 17 24 205
1956029S14177 1956 11 SP MM NOT_NAMED 1956-02-01 15:00:00 TS -24.3034 169.732 main 354 354 P________PP___ SH161956 -24.3224 169.710 15 -1 -24.2678 169.772 TC 55 985 -24.3012 169.737 1 15 23 201
1956029S14177 1956 11 SP MM NOT_NAMED 1956-02-01 17:00:00 TS -24.9962 169.477 main 392 392 P________PO___ SH161956 -24.9807 169.477 15 -1 -25.0235 169.451 TC 55 985 -25.0000 169.500 1 15 22 197
1956029S14177 1956 11 SP MM NOT_NAMED 1956-02-01 18:00:00 TS -25.3294 169.382 main 411 411 O________OP___ jtwc_sh SH161956 -25.3000 169.400 15 -1 -25.4000 169.300 TC 55 985 -25.3175 169.430 1 15 20 190
1956029S14177 1956 11 SP MM NOT_NAMED 1956-02-01 21:00:00 TS -26.3255 169.211 main 494 494 P________PP___ SH161956 -26.2447 169.324 17 -1 -26.5721 168.861 TC 55 985 -26.2404 169.335 1 18 19 186
1956029S14177 1956 11 SP MM NOT_NAMED 1956-02-02 00:00:00 TS -27.2243 169.168 main 584 584 O________OP___ jtwc_sh SH161956 -27.1000 169.400 20 -1 -27.6000 168.500 TC 55 985 -27.0971 169.374 1 20 16 182
1956029S14177 1956 11 SP MM NOT_NAMED 1956-02-02 03:00:00 TS -27.9571 169.173 main 666 666 P________PP___ SH161956 -27.8749 169.477 22 -1 -28.2194 168.240 TC 56 983 -27.8590 169.497 1 23 14 178
1956029S14177 1956 11 SP MM NOT_NAMED 1956-02-02 05:00:00 TS -28.3475 169.210 main 698 698 P________PO___ SH161956 -28.3114 169.556 24 -1 -28.4670 168.127 TC 57 982 -28.3000 169.600 1 25 11 175
1956029S14177 1956 11 SP MM NOT_NAMED 1956-02-02 06:00:00 TS -28.5115 169.228 main 719 697 O________PP___ jtwc_sh SH161956 -28.5000 169.600 25 -1 -28.5581 168.086 TC 57 982 -28.4878 169.627 1 25 8 171
1956029S14177 1956 11 SP MM NOT_NAMED 1956-02-02 09:00:00 TS -28.9007 169.305 main 697 663 P________PP___ SH161956 -28.9375 169.735 27 -1 -28.7679 168.014 TC 58 981 -28.9601 169.735 1 26 7 167
1956029S14177 1956 11 SP MM NOT_NAMED 1956-02-02 12:00:00 TS -29.2373 169.420 main 663 619 O________OP___ jtwc_sh SH161956 -29.3000 169.900 30 -1 -29.0000 168.000 TC 60 980 -29.3493 169.879 1 27 8 165
1956029S14177 1956 11 SP MM NOT_NAMED 1956-02-02 15:00:00 TS -29.6641 169.545 main 609 585 P________PP___ SH161956 -29.7275 170.093 30 -1 -29.4774 167.935 TC 61 978 -29.7241 170.059 1 29 9 165
1956029S14177 1956 11 SP MM NOT_NAMED 1956-02-02 17:00:00 TS -29.9739 169.646 main 575 561 P________PO___ SH161956 -30.0360 170.231 30 -1 -29.8237 167.922 TC 62 977 -30.0000 170.200 1 30 10 165
1956029S14177 1956 11 SP MM NOT_NAMED 1956-02-02 18:00:00 TS -30.1422 169.696 main 561 507 O________PP___ jtwc_sh SH161956 -30.2000 170.300 30 -1 -30.0026 167.928 TC 62 977 -30.1663 170.257 1 30 11 166
1956029S14177 1956 11 SP MM NOT_NAMED 1956-02-02 21:00:00 TS -30.6756 169.850 main 498 435 P________PP___ SH161956 -30.7273 170.471 30 -1 -30.5515 168.007 TC 63 976 -30.6962 170.450 1 30 12 164
1956029S14177 1956 11 SP MM NOT_NAMED 1956-02-03 00:00:00 TS -31.2421 170.074 main 435 363 O________OP___ jtwc_sh SH161956 -31.3000 170.700 30 -1 -31.1000 168.200 TC 65 975 -31.2683 170.694 1 30 12 157
1956029S14177 1956 11 SP MM NOT_NAMED 1956-02-03 03:00:00 TS -31.8149 170.404 main 363 311 P________PP___ SH161956 -31.8772 171.033 30 -1 -31.6282 168.529 TC -31.8769 171.021 1 30 13 151
1956029S14177 1956 11 SP MM NOT_NAMED 1956-02-03 05:00:00 TS -32.2098 170.694 main 311 287 P________PO___ SH161956 -32.2857 171.328 30 -1 -31.9676 168.821 TC -32.3000 171.300 1 30 14 147
1956029S14177 1956 11 SP MM NOT_NAMED 1956-02-03 06:00:00 TS -32.4152 170.864 main 282 200 O________PP___ jtwc_sh SH161956 -32.5000 171.500 30 -1 -32.1338 168.986 TC -32.5269 171.471 1 30 16 143
1956029S14177 1956 11 SP MM NOT_NAMED 1956-02-03 09:00:00 TS -33.0599 171.462 main 186 100 P________PP___ SH161956 -33.1927 172.112 30 -1 -32.6186 169.556 TC -33.2357 172.069 1 30 17 140
1956029S14177 1956 11 SP MM NOT_NAMED 1956-02-03 12:00:00 TS -33.7078 172.143 main 100 22 O________PP___ jtwc_sh SH161956 -33.9000 172.800 30 -1 -33.0846 170.221 TC -33.9466 172.750 1 30 17 138
1956029S14177 1956 11 SP MM NOT_NAMED 1956-02-03 15:00:00 TS -34.3294 172.837 main 22 0 P________PP___ SH161956 -34.5874 173.465 30 -1 -33.5336 170.966 TC -34.6093 173.452 1 30 17 136
1956029S14177 1956 11 SP MM NOT_NAMED 1956-02-03 17:00:00 TS -34.7105 173.297 main 14 9 P________PO___ SH161956 -35.0087 173.895 30 -1 -33.8244 171.498 TC -35.0000 173.900 1 30 17 134
1956029S14177 1956 11 SP MM NOT_NAMED 1956-02-03 18:00:00 TS -34.9080 173.566 main 11 0 O________PP___ jtwc_sh SH161956 -35.2000 174.100 30 -1 -33.9675 171.772 TC -35.1753 174.111 1 29 16 131
1956029S14177 1956 11 SP MM NOT_NAMED 1956-02-03 21:00:00 TS -35.4037 174.268 main 0 0 P________PP___ SH161956 -35.6878 174.669 27 -1 -34.3887 172.623 TC -35.6272 174.690 1 26 14 130
1956029S14177 1956 11 SP MM NOT_NAMED 1956-02-04 00:00:00 TS -35.8301 174.921 main 26 26 O________OP___ jtwc_sh SH161956 -36.1000 175.200 25 -1 -34.8000 173.500 TC 50 986 -35.9935 175.208 1 24 15 128
1956029S14177 1956 11 SP MM NOT_NAMED 1956-02-04 03:00:00 NR -36.3060 175.689 main 37 34 __________P___ SH161956 -1 TC -36.3060 175.689 1 21 13 128
1956029S14177 1956 11 SP MM NOT_NAMED 1956-02-04 05:00:00 NR -36.5000 176.000 main 42 __________O___ SH161956 -1 TC -36.5000 176.000 1 20 9 128

Digital Typhoon Data and Search

About IBTrACS Database

This database is a web-friendly format of International Best Track Archive for Climate Stewardship (IBTrACS), a global best track data archive curated by NOAA dating back to 1842.

Updated: 2021-11-26